sensor_id;sensor_type;location;lat;lon;timestamp;P1;durP1;ratioP1;P2;durP2;ratioP2
4577;SDS011;2301;47.354;8.528;2022-10-17T00:00:46;5.43;;;2.17;;
4577;SDS011;2301;47.354;8.528;2022-10-17T00:03:13;8.60;;;2.07;;
4577;SDS011;2301;47.354;8.528;2022-10-17T00:05:41;6.90;;;2.60;;
4577;SDS011;2301;47.354;8.528;2022-10-17T00:08:10;4.97;;;2.00;;
4577;SDS011;2301;47.354;8.528;2022-10-17T00:10:39;3.23;;;2.20;;
4577;SDS011;2301;47.354;8.528;2022-10-17T00:13:07;2.90;;;2.43;;
4577;SDS011;2301;47.354;8.528;2022-10-17T00:15:35;5.43;;;2.50;;
4577;SDS011;2301;47.354;8.528;2022-10-17T00:18:02;2.43;;;2.20;;
4577;SDS011;2301;47.354;8.528;2022-10-17T00:20:29;3.73;;;2.27;;
4577;SDS011;2301;47.354;8.528;2022-10-17T00:22:57;4.67;;;2.63;;
4577;SDS011;2301;47.354;8.528;2022-10-17T00:25:24;5.87;;;2.33;;
4577;SDS011;2301;47.354;8.528;2022-10-17T00:27:51;3.20;;;2.40;;
4577;SDS011;2301;47.354;8.528;2022-10-17T00:30:19;2.77;;;2.20;;
4577;SDS011;2301;47.354;8.528;2022-10-17T00:32:46;6.57;;;2.50;;
4577;SDS011;2301;47.354;8.528;2022-10-17T00:35:13;7.40;;;2.17;;
4577;SDS011;2301;47.354;8.528;2022-10-17T00:37:40;7.40;;;2.40;;
4577;SDS011;2301;47.354;8.528;2022-10-17T00:40:08;7.43;;;2.90;;
4577;SDS011;2301;47.354;8.528;2022-10-17T00:42:36;9.40;;;2.30;;
4577;SDS011;2301;47.354;8.528;2022-10-17T00:45:09;8.33;;;2.40;;
4577;SDS011;2301;47.354;8.528;2022-10-17T00:47:42;4.70;;;2.33;;
4577;SDS011;2301;47.354;8.528;2022-10-17T00:50:11;4.80;;;2.57;;
4577;SDS011;2301;47.354;8.528;2022-10-17T00:52:39;4.67;;;2.40;;
4577;SDS011;2301;47.354;8.528;2022-10-17T00:55:08;6.83;;;2.40;;
4577;SDS011;2301;47.354;8.528;2022-10-17T00:57:39;5.57;;;2.87;;
4577;SDS011;2301;47.354;8.528;2022-10-17T01:00:08;7.17;;;1.80;;
4577;SDS011;2301;47.354;8.528;2022-10-17T01:02:36;2.60;;;2.10;;
4577;SDS011;2301;47.354;8.528;2022-10-17T01:05:05;4.00;;;2.13;;
4577;SDS011;2301;47.354;8.528;2022-10-17T01:07:33;4.13;;;1.80;;
4577;SDS011;2301;47.354;8.528;2022-10-17T01:10:02;3.90;;;2.00;;
4577;SDS011;2301;47.354;8.528;2022-10-17T01:12:31;2.40;;;2.00;;
4577;SDS011;2301;47.354;8.528;2022-10-17T01:15:07;11.27;;;1.90;;
4577;SDS011;2301;47.354;8.528;2022-10-17T01:17:39;6.27;;;2.50;;
4577;SDS011;2301;47.354;8.528;2022-10-17T01:20:37;3.67;;;2.03;;
4577;SDS011;2301;47.354;8.528;2022-10-17T01:23:23;3.10;;;2.10;;
4577;SDS011;2301;47.354;8.528;2022-10-17T01:26:00;3.73;;;2.17;;
4577;SDS011;2301;47.354;8.528;2022-10-17T01:28:43;3.67;;;2.50;;
4577;SDS011;2301;47.354;8.528;2022-10-17T01:31:37;6.87;;;2.40;;
4577;SDS011;2301;47.354;8.528;2022-10-17T01:34:11;4.30;;;2.20;;
4577;SDS011;2301;47.354;8.528;2022-10-17T01:36:45;4.90;;;2.10;;
4577;SDS011;2301;47.354;8.528;2022-10-17T01:39:18;3.93;;;2.37;;
4577;SDS011;2301;47.354;8.528;2022-10-17T01:41:51;2.57;;;2.23;;
4577;SDS011;2301;47.354;8.528;2022-10-17T01:44:26;2.50;;;1.83;;
4577;SDS011;2301;47.354;8.528;2022-10-17T01:47:00;9.60;;;2.00;;
4577;SDS011;2301;47.354;8.528;2022-10-17T01:49:30;6.80;;;2.37;;
4577;SDS011;2301;47.354;8.528;2022-10-17T01:52:00;5.47;;;2.20;;
4577;SDS011;2301;47.354;8.528;2022-10-17T01:54:31;9.63;;;2.50;;
4577;SDS011;2301;47.354;8.528;2022-10-17T01:57:05;4.13;;;2.13;;
4577;SDS011;2301;47.354;8.528;2022-10-17T01:59:36;3.20;;;1.70;;
4577;SDS011;2301;47.354;8.528;2022-10-17T02:02:07;5.60;;;1.97;;
4577;SDS011;2301;47.354;8.528;2022-10-17T02:04:36;2.27;;;2.07;;
4577;SDS011;2301;47.354;8.528;2022-10-17T02:07:06;2.30;;;2.00;;
4577;SDS011;2301;47.354;8.528;2022-10-17T02:09:34;4.70;;;2.00;;
4577;SDS011;2301;47.354;8.528;2022-10-17T02:12:05;2.53;;;2.20;;
4577;SDS011;2301;47.354;8.528;2022-10-17T02:14:47;9.23;;;2.20;;
4577;SDS011;2301;47.354;8.528;2022-10-17T02:17:28;5.27;;;2.30;;
4577;SDS011;2301;47.354;8.528;2022-10-17T02:20:07;2.63;;;2.37;;
4577;SDS011;2301;47.354;8.528;2022-10-17T02:22:41;2.53;;;1.90;;
4577;SDS011;2301;47.354;8.528;2022-10-17T02:25:13;4.57;;;2.33;;
4577;SDS011;2301;47.354;8.528;2022-10-17T02:27:50;7.57;;;2.47;;
4577;SDS011;2301;47.354;8.528;2022-10-17T02:30:22;4.23;;;2.10;;
4577;SDS011;2301;47.354;8.528;2022-10-17T02:32:56;2.70;;;2.23;;
4577;SDS011;2301;47.354;8.528;2022-10-17T02:35:29;2.67;;;2.00;;
4577;SDS011;2301;47.354;8.528;2022-10-17T02:37:58;7.33;;;2.10;;
4577;SDS011;2301;47.354;8.528;2022-10-17T02:40:26;4.30;;;2.70;;
4577;SDS011;2301;47.354;8.528;2022-10-17T02:42:57;2.90;;;1.93;;
4577;SDS011;2301;47.354;8.528;2022-10-17T02:45:25;5.13;;;1.83;;
4577;SDS011;2301;47.354;8.528;2022-10-17T02:48:01;7.47;;;2.03;;
4577;SDS011;2301;47.354;8.528;2022-10-17T02:50:32;13.00;;;2.23;;
4577;SDS011;2301;47.354;8.528;2022-10-17T02:53:08;2.33;;;1.83;;
4577;SDS011;2301;47.354;8.528;2022-10-17T02:55:41;4.80;;;2.20;;
4577;SDS011;2301;47.354;8.528;2022-10-17T02:58:13;8.03;;;2.50;;
4577;SDS011;2301;47.354;8.528;2022-10-17T03:00:44;7.53;;;2.20;;
4577;SDS011;2301;47.354;8.528;2022-10-17T03:03:21;4.37;;;2.47;;
4577;SDS011;2301;47.354;8.528;2022-10-17T03:05:51;3.50;;;2.23;;
4577;SDS011;2301;47.354;8.528;2022-10-17T03:08:18;5.00;;;2.33;;
4577;SDS011;2301;47.354;8.528;2022-10-17T03:10:45;2.40;;;2.20;;
4577;SDS011;2301;47.354;8.528;2022-10-17T03:13:12;5.77;;;2.60;;
4577;SDS011;2301;47.354;8.528;2022-10-17T03:15:40;2.73;;;1.70;;
4577;SDS011;2301;47.354;8.528;2022-10-17T03:18:07;6.87;;;2.37;;
4577;SDS011;2301;47.354;8.528;2022-10-17T03:20:35;2.90;;;2.10;;
4577;SDS011;2301;47.354;8.528;2022-10-17T03:23:02;9.30;;;2.10;;
4577;SDS011;2301;47.354;8.528;2022-10-17T03:25:29;4.23;;;2.03;;
4577;SDS011;2301;47.354;8.528;2022-10-17T03:27:57;6.93;;;1.70;;
4577;SDS011;2301;47.354;8.528;2022-10-17T03:30:25;7.00;;;2.40;;
4577;SDS011;2301;47.354;8.528;2022-10-17T03:32:52;2.20;;;1.80;;
4577;SDS011;2301;47.354;8.528;2022-10-17T03:35:19;5.17;;;1.90;;
4577;SDS011;2301;47.354;8.528;2022-10-17T03:37:48;3.30;;;2.10;;
4577;SDS011;2301;47.354;8.528;2022-10-17T03:40:15;6.53;;;2.10;;
4577;SDS011;2301;47.354;8.528;2022-10-17T03:42:42;3.93;;;1.90;;
4577;SDS011;2301;47.354;8.528;2022-10-17T03:45:09;4.50;;;2.03;;
4577;SDS011;2301;47.354;8.528;2022-10-17T03:47:36;8.40;;;2.23;;
4577;SDS011;2301;47.354;8.528;2022-10-17T03:50:03;9.43;;;2.27;;
4577;SDS011;2301;47.354;8.528;2022-10-17T03:52:31;2.13;;;1.90;;
4577;SDS011;2301;47.354;8.528;2022-10-17T03:54:59;10.67;;;2.07;;
4577;SDS011;2301;47.354;8.528;2022-10-17T03:57:26;3.90;;;1.77;;
4577;SDS011;2301;47.354;8.528;2022-10-17T03:59:53;4.57;;;2.20;;
4577;SDS011;2301;47.354;8.528;2022-10-17T04:02:20;15.43;;;2.00;;
4577;SDS011;2301;47.354;8.528;2022-10-17T04:04:47;7.23;;;2.23;;
4577;SDS011;2301;47.354;8.528;2022-10-17T04:07:14;6.60;;;1.90;;
4577;SDS011;2301;47.354;8.528;2022-10-17T04:09:41;4.00;;;2.10;;
4577;SDS011;2301;47.354;8.528;2022-10-17T04:12:09;7.40;;;2.30;;
4577;SDS011;2301;47.354;8.528;2022-10-17T04:14:36;2.70;;;2.30;;
4577;SDS011;2301;47.354;8.528;2022-10-17T04:17:03;3.53;;;2.23;;
4577;SDS011;2301;47.354;8.528;2022-10-17T04:19:30;3.37;;;1.87;;
4577;SDS011;2301;47.354;8.528;2022-10-17T04:21:57;2.07;;;1.80;;
4577;SDS011;2301;47.354;8.528;2022-10-17T04:24:24;4.57;;;2.43;;
4577;SDS011;2301;47.354;8.528;2022-10-17T04:26:51;4.30;;;1.80;;
4577;SDS011;2301;47.354;8.528;2022-10-17T04:29:20;21.93;;;2.47;;
4577;SDS011;2301;47.354;8.528;2022-10-17T04:31:47;6.53;;;2.27;;
4577;SDS011;2301;47.354;8.528;2022-10-17T04:34:16;7.93;;;2.40;;
4577;SDS011;2301;47.354;8.528;2022-10-17T04:36:43;3.67;;;1.90;;
4577;SDS011;2301;47.354;8.528;2022-10-17T04:39:11;3.07;;;2.40;;
4577;SDS011;2301;47.354;8.528;2022-10-17T04:41:38;5.50;;;2.40;;
4577;SDS011;2301;47.354;8.528;2022-10-17T04:44:05;4.37;;;2.40;;
4577;SDS011;2301;47.354;8.528;2022-10-17T04:46:34;10.20;;;2.30;;
4577;SDS011;2301;47.354;8.528;2022-10-17T04:49:01;9.77;;;2.30;;
4577;SDS011;2301;47.354;8.528;2022-10-17T04:51:28;4.40;;;2.33;;
4577;SDS011;2301;47.354;8.528;2022-10-17T04:53:55;6.43;;;2.53;;
4577;SDS011;2301;47.354;8.528;2022-10-17T04:56:22;5.70;;;2.47;;
4577;SDS011;2301;47.354;8.528;2022-10-17T04:58:50;7.50;;;2.50;;
4577;SDS011;2301;47.354;8.528;2022-10-17T05:01:18;2.20;;;2.00;;
4577;SDS011;2301;47.354;8.528;2022-10-17T05:03:47;5.27;;;2.53;;
4577;SDS011;2301;47.354;8.528;2022-10-17T05:06:15;6.00;;;2.93;;
4577;SDS011;2301;47.354;8.528;2022-10-17T05:08:43;4.00;;;2.20;;
4577;SDS011;2301;47.354;8.528;2022-10-17T05:11:14;3.70;;;2.13;;
4577;SDS011;2301;47.354;8.528;2022-10-17T05:13:43;12.00;;;2.53;;
4577;SDS011;2301;47.354;8.528;2022-10-17T05:16:10;5.40;;;2.67;;
4577;SDS011;2301;47.354;8.528;2022-10-17T05:18:37;5.30;;;2.43;;
4577;SDS011;2301;47.354;8.528;2022-10-17T05:21:05;4.10;;;2.40;;
4577;SDS011;2301;47.354;8.528;2022-10-17T05:23:32;6.80;;;2.47;;
4577;SDS011;2301;47.354;8.528;2022-10-17T05:25:59;9.57;;;2.33;;
4577;SDS011;2301;47.354;8.528;2022-10-17T05:28:26;4.80;;;2.20;;
4577;SDS011;2301;47.354;8.528;2022-10-17T05:30:53;14.03;;;2.30;;
4577;SDS011;2301;47.354;8.528;2022-10-17T05:33:21;6.27;;;2.73;;
4577;SDS011;2301;47.354;8.528;2022-10-17T05:35:48;5.93;;;2.60;;
4577;SDS011;2301;47.354;8.528;2022-10-17T05:38:17;5.10;;;2.20;;
4577;SDS011;2301;47.354;8.528;2022-10-17T05:40:43;5.43;;;2.37;;
4577;SDS011;2301;47.354;8.528;2022-10-17T05:43:10;10.60;;;2.70;;
4577;SDS011;2301;47.354;8.528;2022-10-17T05:45:38;4.43;;;2.37;;
4577;SDS011;2301;47.354;8.528;2022-10-17T05:48:05;6.67;;;2.70;;
4577;SDS011;2301;47.354;8.528;2022-10-17T05:50:33;5.40;;;2.40;;
4577;SDS011;2301;47.354;8.528;2022-10-17T05:53:00;18.87;;;3.00;;
4577;SDS011;2301;47.354;8.528;2022-10-17T05:55:28;7.03;;;2.70;;
4577;SDS011;2301;47.354;8.528;2022-10-17T05:57:55;11.20;;;2.53;;
4577;SDS011;2301;47.354;8.528;2022-10-17T06:00:22;5.97;;;2.57;;
4577;SDS011;2301;47.354;8.528;2022-10-17T06:02:49;8.67;;;2.70;;
4577;SDS011;2301;47.354;8.528;2022-10-17T06:05:16;9.60;;;3.37;;
4577;SDS011;2301;47.354;8.528;2022-10-17T06:07:43;10.03;;;3.33;;
4577;SDS011;2301;47.354;8.528;2022-10-17T06:10:10;17.03;;;3.50;;
4577;SDS011;2301;47.354;8.528;2022-10-17T06:12:41;5.83;;;3.10;;
4577;SDS011;2301;47.354;8.528;2022-10-17T06:15:09;16.13;;;3.80;;
4577;SDS011;2301;47.354;8.528;2022-10-17T06:17:37;8.30;;;4.07;;
4577;SDS011;2301;47.354;8.528;2022-10-17T06:20:04;5.03;;;3.10;;
4577;SDS011;2301;47.354;8.528;2022-10-17T06:22:32;12.03;;;2.97;;
4577;SDS011;2301;47.354;8.528;2022-10-17T06:24:59;8.40;;;2.90;;
4577;SDS011;2301;47.354;8.528;2022-10-17T06:27:25;25.93;;;4.53;;
4577;SDS011;2301;47.354;8.528;2022-10-17T06:29:54;21.10;;;3.20;;
4577;SDS011;2301;47.354;8.528;2022-10-17T06:32:20;10.27;;;2.70;;
4577;SDS011;2301;47.354;8.528;2022-10-17T06:34:47;21.37;;;2.97;;
4577;SDS011;2301;47.354;8.528;2022-10-17T06:37:14;7.73;;;2.50;;
4577;SDS011;2301;47.354;8.528;2022-10-17T06:39:41;6.33;;;2.40;;
4577;SDS011;2301;47.354;8.528;2022-10-17T06:42:08;8.23;;;2.80;;
4577;SDS011;2301;47.354;8.528;2022-10-17T06:44:35;8.20;;;3.03;;
4577;SDS011;2301;47.354;8.528;2022-10-17T06:47:03;13.73;;;2.60;;
4577;SDS011;2301;47.354;8.528;2022-10-17T06:49:30;8.33;;;2.87;;
4577;SDS011;2301;47.354;8.528;2022-10-17T06:51:58;4.70;;;2.73;;
4577;SDS011;2301;47.354;8.528;2022-10-17T06:54:25;5.03;;;2.67;;
4577;SDS011;2301;47.354;8.528;2022-10-17T06:56:53;8.80;;;2.90;;
4577;SDS011;2301;47.354;8.528;2022-10-17T06:59:20;11.20;;;2.80;;
4577;SDS011;2301;47.354;8.528;2022-10-17T07:01:47;8.90;;;2.70;;
4577;SDS011;2301;47.354;8.528;2022-10-17T07:04:15;7.47;;;2.83;;
4577;SDS011;2301;47.354;8.528;2022-10-17T07:06:42;7.40;;;3.40;;
4577;SDS011;2301;47.354;8.528;2022-10-17T07:09:09;6.23;;;3.10;;
4577;SDS011;2301;47.354;8.528;2022-10-17T07:11:36;4.27;;;3.10;;
4577;SDS011;2301;47.354;8.528;2022-10-17T07:14:04;4.70;;;2.93;;
4577;SDS011;2301;47.354;8.528;2022-10-17T07:16:32;7.13;;;2.53;;
4577;SDS011;2301;47.354;8.528;2022-10-17T07:18:59;18.90;;;3.10;;
4577;SDS011;2301;47.354;8.528;2022-10-17T07:21:28;12.73;;;3.57;;
4577;SDS011;2301;47.354;8.528;2022-10-17T07:23:55;10.30;;;3.23;;
4577;SDS011;2301;47.354;8.528;2022-10-17T07:26:22;11.93;;;3.70;;
4577;SDS011;2301;47.354;8.528;2022-10-17T07:28:50;6.20;;;3.30;;
4577;SDS011;2301;47.354;8.528;2022-10-17T07:31:19;9.43;;;3.30;;
4577;SDS011;2301;47.354;8.528;2022-10-17T07:33:47;14.20;;;4.97;;
4577;SDS011;2301;47.354;8.528;2022-10-17T07:36:15;7.80;;;3.57;;
4577;SDS011;2301;47.354;8.528;2022-10-17T07:38:43;17.63;;;3.80;;
4577;SDS011;2301;47.354;8.528;2022-10-17T07:41:10;9.53;;;3.80;;
4577;SDS011;2301;47.354;8.528;2022-10-17T07:43:38;11.40;;;3.53;;
4577;SDS011;2301;47.354;8.528;2022-10-17T07:46:07;11.07;;;3.80;;
4577;SDS011;2301;47.354;8.528;2022-10-17T07:48:35;11.27;;;3.37;;
4577;SDS011;2301;47.354;8.528;2022-10-17T07:51:03;12.17;;;3.67;;
4577;SDS011;2301;47.354;8.528;2022-10-17T07:53:33;4.47;;;2.90;;
4577;SDS011;2301;47.354;8.528;2022-10-17T07:56:03;15.97;;;3.47;;
4577;SDS011;2301;47.354;8.528;2022-10-17T07:58:31;8.03;;;3.03;;
4577;SDS011;2301;47.354;8.528;2022-10-17T08:00:59;17.23;;;4.03;;
4577;SDS011;2301;47.354;8.528;2022-10-17T08:03:26;9.83;;;3.87;;
4577;SDS011;2301;47.354;8.528;2022-10-17T08:05:56;12.03;;;3.93;;
4577;SDS011;2301;47.354;8.528;2022-10-17T08:08:24;12.27;;;4.40;;
4577;SDS011;2301;47.354;8.528;2022-10-17T08:10:51;5.10;;;3.53;;
4577;SDS011;2301;47.354;8.528;2022-10-17T08:13:20;11.93;;;3.63;;
4577;SDS011;2301;47.354;8.528;2022-10-17T08:15:47;10.23;;;4.37;;
4577;SDS011;2301;47.354;8.528;2022-10-17T08:18:14;14.30;;;4.57;;
4577;SDS011;2301;47.354;8.528;2022-10-17T08:20:41;14.23;;;4.93;;
4577;SDS011;2301;47.354;8.528;2022-10-17T08:23:08;22.77;;;6.27;;
4577;SDS011;2301;47.354;8.528;2022-10-17T08:25:36;12.67;;;4.07;;
4577;SDS011;2301;47.354;8.528;2022-10-17T08:28:03;13.43;;;4.40;;
4577;SDS011;2301;47.354;8.528;2022-10-17T08:30:32;14.60;;;4.37;;
4577;SDS011;2301;47.354;8.528;2022-10-17T08:32:59;9.70;;;4.10;;
4577;SDS011;2301;47.354;8.528;2022-10-17T08:35:26;8.73;;;4.30;;
4577;SDS011;2301;47.354;8.528;2022-10-17T08:37:53;7.73;;;4.10;;
4577;SDS011;2301;47.354;8.528;2022-10-17T08:40:20;7.57;;;4.63;;
4577;SDS011;2301;47.354;8.528;2022-10-17T08:43:05;9.93;;;4.17;;
4577;SDS011;2301;47.354;8.528;2022-10-17T08:45:44;10.40;;;4.00;;
4577;SDS011;2301;47.354;8.528;2022-10-17T08:48:15;4.70;;;3.90;;
4577;SDS011;2301;47.354;8.528;2022-10-17T08:50:45;5.70;;;3.97;;
4577;SDS011;2301;47.354;8.528;2022-10-17T08:53:18;8.50;;;4.20;;
4577;SDS011;2301;47.354;8.528;2022-10-17T08:55:49;6.50;;;4.03;;
4577;SDS011;2301;47.354;8.528;2022-10-17T08:58:18;9.40;;;4.17;;
4577;SDS011;2301;47.354;8.528;2022-10-17T09:00:49;7.17;;;4.27;;
4577;SDS011;2301;47.354;8.528;2022-10-17T09:03:27;7.07;;;4.13;;
4577;SDS011;2301;47.354;8.528;2022-10-17T09:06:08;19.13;;;4.47;;
4577;SDS011;2301;47.354;8.528;2022-10-17T09:08:45;8.83;;;4.40;;
4577;SDS011;2301;47.354;8.528;2022-10-17T09:11:21;10.97;;;4.70;;
4577;SDS011;2301;47.354;8.528;2022-10-17T09:14:02;7.00;;;4.50;;
4577;SDS011;2301;47.354;8.528;2022-10-17T09:16:43;5.67;;;4.50;;
4577;SDS011;2301;47.354;8.528;2022-10-17T09:19:22;9.87;;;4.50;;
4577;SDS011;2301;47.354;8.528;2022-10-17T09:21:52;5.07;;;4.00;;
4577;SDS011;2301;47.354;8.528;2022-10-17T09:24:23;11.40;;;3.80;;
4577;SDS011;2301;47.354;8.528;2022-10-17T09:26:59;9.43;;;3.80;;
4577;SDS011;2301;47.354;8.528;2022-10-17T09:29:27;9.53;;;4.03;;
4577;SDS011;2301;47.354;8.528;2022-10-17T09:31:59;4.63;;;3.70;;
4577;SDS011;2301;47.354;8.528;2022-10-17T09:34:28;6.17;;;4.03;;
4577;SDS011;2301;47.354;8.528;2022-10-17T09:36:57;10.93;;;3.00;;
4577;SDS011;2301;47.354;8.528;2022-10-17T09:39:26;3.30;;;2.70;;
4577;SDS011;2301;47.354;8.528;2022-10-17T09:41:56;6.50;;;2.60;;
4577;SDS011;2301;47.354;8.528;2022-10-17T09:44:28;5.13;;;3.00;;
4577;SDS011;2301;47.354;8.528;2022-10-17T09:47:10;8.77;;;3.03;;
4577;SDS011;2301;47.354;8.528;2022-10-17T09:49:45;7.13;;;2.73;;
4577;SDS011;2301;47.354;8.528;2022-10-17T09:52:13;4.37;;;3.30;;
4577;SDS011;2301;47.354;8.528;2022-10-17T09:54:43;3.40;;;3.10;;
4577;SDS011;2301;47.354;8.528;2022-10-17T09:57:12;4.53;;;2.50;;
4577;SDS011;2301;47.354;8.528;2022-10-17T09:59:41;10.80;;;2.97;;
4577;SDS011;2301;47.354;8.528;2022-10-17T10:02:15;2.70;;;2.50;;
4577;SDS011;2301;47.354;8.528;2022-10-17T10:04:51;7.90;;;3.60;;
4577;SDS011;2301;47.354;8.528;2022-10-17T10:07:20;11.33;;;3.20;;
4577;SDS011;2301;47.354;8.528;2022-10-17T10:09:47;5.83;;;2.60;;
4577;SDS011;2301;47.354;8.528;2022-10-17T10:12:16;8.87;;;3.63;;
4577;SDS011;2301;47.354;8.528;2022-10-17T10:14:45;6.93;;;3.47;;
4577;SDS011;2301;47.354;8.528;2022-10-17T10:17:28;15.10;;;3.30;;
4577;SDS011;2301;47.354;8.528;2022-10-17T10:20:03;8.27;;;3.20;;
4577;SDS011;2301;47.354;8.528;2022-10-17T10:23:03;6.20;;;3.27;;
4577;SDS011;2301;47.354;8.528;2022-10-17T10:25:31;4.37;;;2.70;;
4577;SDS011;2301;47.354;8.528;2022-10-17T10:28:00;4.83;;;3.30;;
4577;SDS011;2301;47.354;8.528;2022-10-17T10:30:28;7.83;;;3.10;;
4577;SDS011;2301;47.354;8.528;2022-10-17T10:32:57;4.47;;;3.17;;
4577;SDS011;2301;47.354;8.528;2022-10-17T10:35:30;3.83;;;2.90;;
4577;SDS011;2301;47.354;8.528;2022-10-17T10:38:00;7.00;;;3.70;;
4577;SDS011;2301;47.354;8.528;2022-10-17T10:40:30;6.83;;;2.87;;
4577;SDS011;2301;47.354;8.528;2022-10-17T10:42:59;4.80;;;3.00;;
4577;SDS011;2301;47.354;8.528;2022-10-17T10:45:27;5.13;;;2.80;;
4577;SDS011;2301;47.354;8.528;2022-10-17T10:48:12;5.60;;;3.23;;
4577;SDS011;2301;47.354;8.528;2022-10-17T10:50:46;4.83;;;2.73;;
4577;SDS011;2301;47.354;8.528;2022-10-17T10:53:24;6.03;;;2.83;;
4577;SDS011;2301;47.354;8.528;2022-10-17T10:55:58;4.20;;;2.77;;
4577;SDS011;2301;47.354;8.528;2022-10-17T10:58:33;3.37;;;3.07;;
4577;SDS011;2301;47.354;8.528;2022-10-17T11:01:08;10.23;;;3.40;;
4577;SDS011;2301;47.354;8.528;2022-10-17T11:03:45;5.07;;;2.60;;
4577;SDS011;2301;47.354;8.528;2022-10-17T11:06:23;6.30;;;2.87;;
4577;SDS011;2301;47.354;8.528;2022-10-17T11:09:03;4.93;;;3.00;;
4577;SDS011;2301;47.354;8.528;2022-10-17T11:11:39;2.97;;;2.77;;
4577;SDS011;2301;47.354;8.528;2022-10-17T11:14:10;6.80;;;2.93;;
4577;SDS011;2301;47.354;8.528;2022-10-17T11:16:46;2.90;;;2.70;;
4577;SDS011;2301;47.354;8.528;2022-10-17T11:19:23;7.10;;;2.57;;
4577;SDS011;2301;47.354;8.528;2022-10-17T11:22:01;4.23;;;2.37;;
4577;SDS011;2301;47.354;8.528;2022-10-17T11:24:35;7.20;;;2.93;;
4577;SDS011;2301;47.354;8.528;2022-10-17T11:27:06;2.83;;;2.57;;
4577;SDS011;2301;47.354;8.528;2022-10-17T11:29:34;6.20;;;2.90;;
4577;SDS011;2301;47.354;8.528;2022-10-17T11:32:04;4.00;;;3.30;;
4577;SDS011;2301;47.354;8.528;2022-10-17T11:34:36;8.53;;;3.47;;
4577;SDS011;2301;47.354;8.528;2022-10-17T11:37:10;9.73;;;3.00;;
4577;SDS011;2301;47.354;8.528;2022-10-17T11:39:41;12.43;;;3.23;;
4577;SDS011;2301;47.354;8.528;2022-10-17T11:42:14;3.23;;;2.90;;
4577;SDS011;2301;47.354;8.528;2022-10-17T11:44:45;10.93;;;3.20;;
4577;SDS011;2301;47.354;8.528;2022-10-17T11:47:30;2.90;;;2.63;;
4577;SDS011;2301;47.354;8.528;2022-10-17T11:50:08;3.50;;;2.67;;
4577;SDS011;2301;47.354;8.528;2022-10-17T11:52:44;5.33;;;2.70;;
4577;SDS011;2301;47.354;8.528;2022-10-17T11:55:15;5.00;;;2.97;;
4577;SDS011;2301;47.354;8.528;2022-10-17T11:57:52;4.33;;;2.73;;
4577;SDS011;2301;47.354;8.528;2022-10-17T12:00:39;6.30;;;2.37;;
4577;SDS011;2301;47.354;8.528;2022-10-17T12:03:17;7.63;;;2.80;;
4577;SDS011;2301;47.354;8.528;2022-10-17T12:05:56;7.03;;;2.63;;
4577;SDS011;2301;47.354;8.528;2022-10-17T12:08:29;3.00;;;2.77;;
4577;SDS011;2301;47.354;8.528;2022-10-17T12:11:04;4.20;;;2.60;;
4577;SDS011;2301;47.354;8.528;2022-10-17T12:13:46;5.03;;;3.10;;
4577;SDS011;2301;47.354;8.528;2022-10-17T12:16:37;8.07;;;2.40;;
4577;SDS011;2301;47.354;8.528;2022-10-17T12:19:20;7.00;;;3.13;;
4577;SDS011;2301;47.354;8.528;2022-10-17T12:21:57;7.07;;;2.57;;
4577;SDS011;2301;47.354;8.528;2022-10-17T12:24:39;2.77;;;2.20;;
4577;SDS011;2301;47.354;8.528;2022-10-17T12:27:30;3.00;;;2.53;;
4577;SDS011;2301;47.354;8.528;2022-10-17T12:30:00;5.43;;;2.77;;
4577;SDS011;2301;47.354;8.528;2022-10-17T12:32:30;6.63;;;2.60;;
4577;SDS011;2301;47.354;8.528;2022-10-17T12:34:57;5.33;;;3.27;;
4577;SDS011;2301;47.354;8.528;2022-10-17T12:49:21;13.33;;;3.50;;
4577;SDS011;2301;47.354;8.528;2022-10-17T12:52:05;5.00;;;2.70;;
4577;SDS011;2301;47.354;8.528;2022-10-17T12:54:57;5.53;;;2.70;;
4577;SDS011;2301;47.354;8.528;2022-10-17T12:57:33;11.77;;;2.90;;
4577;SDS011;2301;47.354;8.528;2022-10-17T13:00:04;11.00;;;3.20;;
4577;SDS011;2301;47.354;8.528;2022-10-17T13:02:41;6.40;;;2.67;;
4577;SDS011;2301;47.354;8.528;2022-10-17T13:05:10;3.90;;;2.73;;
4577;SDS011;2301;47.354;8.528;2022-10-17T13:07:42;10.67;;;3.77;;
4577;SDS011;2301;47.354;8.528;2022-10-17T13:10:20;4.90;;;2.57;;
4577;SDS011;2301;47.354;8.528;2022-10-17T13:12:52;5.83;;;2.70;;
4577;SDS011;2301;47.354;8.528;2022-10-17T13:15:26;6.60;;;3.50;;
4577;SDS011;2301;47.354;8.528;2022-10-17T13:17:54;4.60;;;2.93;;
4577;SDS011;2301;47.354;8.528;2022-10-17T13:20:23;9.63;;;2.80;;
4577;SDS011;2301;47.354;8.528;2022-10-17T13:22:52;4.33;;;2.87;;
4577;SDS011;2301;47.354;8.528;2022-10-17T13:25:21;5.97;;;2.93;;
4577;SDS011;2301;47.354;8.528;2022-10-17T13:27:48;8.00;;;2.70;;
4577;SDS011;2301;47.354;8.528;2022-10-17T13:30:30;9.73;;;2.73;;
4577;SDS011;2301;47.354;8.528;2022-10-17T13:32:58;6.23;;;3.17;;
4577;SDS011;2301;47.354;8.528;2022-10-17T13:35:26;3.47;;;3.00;;
4577;SDS011;2301;47.354;8.528;2022-10-17T13:37:55;3.87;;;2.70;;
4577;SDS011;2301;47.354;8.528;2022-10-17T13:40:24;4.20;;;2.83;;
4577;SDS011;2301;47.354;8.528;2022-10-17T13:42:55;6.33;;;3.37;;
4577;SDS011;2301;47.354;8.528;2022-10-17T13:45:27;13.97;;;3.20;;
4577;SDS011;2301;47.354;8.528;2022-10-17T13:47:56;5.77;;;3.13;;
4577;SDS011;2301;47.354;8.528;2022-10-17T13:50:26;4.40;;;2.63;;
4577;SDS011;2301;47.354;8.528;2022-10-17T13:53:07;3.37;;;3.00;;
4577;SDS011;2301;47.354;8.528;2022-10-17T13:55:55;11.23;;;4.00;;
4577;SDS011;2301;47.354;8.528;2022-10-17T13:58:25;3.80;;;3.00;;
4577;SDS011;2301;47.354;8.528;2022-10-17T14:00:56;6.40;;;3.27;;
4577;SDS011;2301;47.354;8.528;2022-10-17T14:03:23;10.20;;;3.27;;
4577;SDS011;2301;47.354;8.528;2022-10-17T14:06:00;6.40;;;3.00;;
4577;SDS011;2301;47.354;8.528;2022-10-17T14:08:34;4.77;;;3.37;;
4577;SDS011;2301;47.354;8.528;2022-10-17T14:11:11;6.10;;;3.33;;
4577;SDS011;2301;47.354;8.528;2022-10-17T14:13:42;6.47;;;3.27;;
4577;SDS011;2301;47.354;8.528;2022-10-17T14:16:15;7.17;;;2.73;;
4577;SDS011;2301;47.354;8.528;2022-10-17T14:18:44;9.33;;;3.70;;
4577;SDS011;2301;47.354;8.528;2022-10-17T14:21:17;6.80;;;3.53;;
4577;SDS011;2301;47.354;8.528;2022-10-17T14:23:45;4.70;;;2.87;;
4577;SDS011;2301;47.354;8.528;2022-10-17T14:26:13;6.13;;;3.33;;
4577;SDS011;2301;47.354;8.528;2022-10-17T14:28:43;4.30;;;2.63;;
4577;SDS011;2301;47.354;8.528;2022-10-17T14:31:16;7.33;;;3.00;;
4577;SDS011;2301;47.354;8.528;2022-10-17T14:33:46;3.70;;;2.50;;
4577;SDS011;2301;47.354;8.528;2022-10-17T14:36:14;7.30;;;3.17;;
4577;SDS011;2301;47.354;8.528;2022-10-17T14:38:45;5.40;;;3.40;;
4577;SDS011;2301;47.354;8.528;2022-10-17T14:41:14;4.30;;;3.10;;
4577;SDS011;2301;47.354;8.528;2022-10-17T14:43:52;8.23;;;2.67;;
4577;SDS011;2301;47.354;8.528;2022-10-17T14:46:20;4.80;;;3.30;;
4577;SDS011;2301;47.354;8.528;2022-10-17T14:48:50;5.03;;;2.73;;
4577;SDS011;2301;47.354;8.528;2022-10-17T14:51:19;11.80;;;2.83;;
4577;SDS011;2301;47.354;8.528;2022-10-17T14:53:58;5.80;;;2.83;;
4577;SDS011;2301;47.354;8.528;2022-10-17T14:56:32;8.20;;;3.10;;
4577;SDS011;2301;47.354;8.528;2022-10-17T14:59:02;2.43;;;2.23;;
4577;SDS011;2301;47.354;8.528;2022-10-17T15:01:30;4.17;;;2.83;;
4577;SDS011;2301;47.354;8.528;2022-10-17T15:03:58;11.13;;;3.30;;
4577;SDS011;2301;47.354;8.528;2022-10-17T15:06:26;4.10;;;2.73;;
4577;SDS011;2301;47.354;8.528;2022-10-17T15:08:54;9.67;;;3.97;;
4577;SDS011;2301;47.354;8.528;2022-10-17T15:11:21;3.87;;;2.80;;
4577;SDS011;2301;47.354;8.528;2022-10-17T15:13:48;6.57;;;4.30;;
4577;SDS011;2301;47.354;8.528;2022-10-17T15:16:17;6.17;;;4.10;;
4577;SDS011;2301;47.354;8.528;2022-10-17T15:18:46;9.53;;;3.40;;
4577;SDS011;2301;47.354;8.528;2022-10-17T15:21:17;7.60;;;3.07;;
4577;SDS011;2301;47.354;8.528;2022-10-17T15:23:45;8.80;;;2.80;;
4577;SDS011;2301;47.354;8.528;2022-10-17T15:26:13;14.93;;;3.97;;
4577;SDS011;2301;47.354;8.528;2022-10-17T15:28:43;10.07;;;2.90;;
4577;SDS011;2301;47.354;8.528;2022-10-17T15:31:11;8.23;;;3.13;;
4577;SDS011;2301;47.354;8.528;2022-10-17T15:33:42;8.23;;;3.40;;
4577;SDS011;2301;47.354;8.528;2022-10-17T15:36:19;13.17;;;3.60;;
4577;SDS011;2301;47.354;8.528;2022-10-17T15:38:48;5.80;;;3.20;;
4577;SDS011;2301;47.354;8.528;2022-10-17T15:41:17;7.80;;;3.10;;
4577;SDS011;2301;47.354;8.528;2022-10-17T15:43:44;7.00;;;3.43;;
4577;SDS011;2301;47.354;8.528;2022-10-17T15:46:13;9.10;;;3.07;;